createdAt,value
2019-04-13T00:00:50.541Z,6.60
2019-04-13T00:03:18.582Z,6.37
2019-04-13T00:06:17.893Z,5.33
2019-04-13T00:08:45.668Z,7.57
2019-04-13T00:11:22.144Z,7.27
2019-04-13T00:13:49.918Z,8.00
2019-04-13T00:16:18.122Z,6.03
2019-04-13T00:18:46.129Z,6.87
2019-04-13T00:21:14.305Z,7.63
2019-04-13T00:23:42.195Z,6.33
2019-04-13T00:26:10.239Z,7.00
2019-04-13T00:28:38.290Z,7.30
2019-04-13T00:31:06.410Z,5.63
2019-04-13T00:33:34.270Z,4.53
2019-04-13T00:36:02.317Z,6.37
2019-04-13T00:38:30.144Z,7.20
2019-04-13T00:40:58.173Z,5.03
2019-04-13T00:43:26.255Z,8.60
2019-04-13T00:45:54.949Z,7.77
2019-04-13T00:48:22.929Z,7.90
2019-04-13T00:50:50.820Z,7.83
2019-04-13T00:53:18.945Z,9.53
2019-04-13T00:55:47.407Z,8.20
2019-04-13T00:58:15.478Z,9.33
2019-04-13T01:00:43.551Z,12.30
2019-04-13T01:03:11.379Z,9.23
2019-04-13T01:05:39.512Z,9.60
2019-04-13T01:08:07.275Z,9.73
2019-04-13T01:10:35.906Z,8.97
2019-04-13T01:13:03.998Z,7.17
2019-04-13T01:15:31.767Z,8.27
2019-04-13T01:18:00.268Z,8.70
2019-04-13T01:20:28.442Z,9.47
2019-04-13T01:22:56.193Z,8.57
2019-04-13T01:25:24.322Z,12.77
2019-04-13T01:27:52.449Z,9.07
2019-04-13T01:30:20.506Z,13.13
2019-04-13T01:32:50.040Z,13.38
2019-04-13T01:35:19.961Z,10.23
2019-04-13T01:37:48.136Z,9.90
2019-04-13T01:40:15.804Z,8.13
2019-04-13T01:42:43.747Z,7.80
2019-04-13T01:45:12.135Z,8.17
2019-04-13T01:47:42.270Z,8.60
2019-04-13T01:50:11.672Z,8.53
2019-04-13T01:52:39.822Z,12.18
2019-04-13T01:55:07.887Z,9.30
2019-04-13T01:57:35.950Z,8.90
2019-04-13T02:00:03.424Z,8.27
2019-04-13T02:02:46.656Z,8.93
2019-04-13T02:05:36.437Z,7.43
2019-04-13T02:08:09.720Z,9.00
2019-04-13T02:10:40.522Z,8.80
2019-04-13T02:13:08.608Z,9.47
2019-04-13T02:15:36.699Z,9.53
2019-04-13T02:18:04.788Z,8.63
2019-04-13T02:20:32.543Z,8.97
2019-04-13T02:23:01.017Z,9.50
2019-04-13T02:25:29.075Z,9.47
2019-04-13T02:27:57.524Z,9.07
2019-04-13T02:30:25.423Z,9.03
2019-04-13T02:32:53.290Z,9.13
2019-04-13T02:35:34.518Z,9.37
2019-04-13T02:37:50.132Z,8.87
2019-04-13T02:40:18.649Z,9.10
2019-04-13T02:42:46.716Z,8.77
2019-04-13T02:45:15.055Z,8.63
2019-04-13T02:47:42.866Z,7.67
2019-04-13T02:50:12.156Z,7.07
2019-04-13T02:52:40.548Z,8.67
2019-04-13T02:55:08.323Z,6.13
2019-04-13T02:57:36.147Z,9.30
2019-04-13T03:00:04.246Z,8.33
2019-04-13T03:02:32.608Z,9.60
2019-04-13T03:05:00.688Z,9.60
2019-04-13T03:07:28.860Z,7.43
2019-04-13T03:09:56.921Z,9.40
2019-04-13T03:12:24.698Z,9.43
2019-04-13T03:14:52.797Z,9.40
2019-04-13T03:17:36.728Z,8.93
2019-04-13T03:20:07.958Z,7.87
2019-04-13T03:22:36.029Z,9.23
2019-04-13T03:25:04.078Z,9.10
2019-04-13T03:27:32.419Z,8.97
2019-04-13T03:30:00.529Z,9.30
2019-04-13T03:32:28.321Z,8.40
2019-04-13T03:34:56.377Z,8.23
2019-04-13T03:37:24.154Z,9.83
2019-04-13T03:39:52.019Z,9.33
2019-04-13T03:42:20.187Z,9.03
2019-04-13T03:44:48.275Z,11.80
2019-04-13T03:47:16.411Z,9.47
2019-04-13T03:49:45.222Z,9.13
2019-04-13T03:52:13.498Z,11.30
2019-04-13T03:54:41.560Z,10.20
2019-04-13T03:57:09.787Z,11.07
2019-04-13T03:59:37.837Z,9.00
2019-04-13T04:02:05.875Z,10.33
2019-04-13T04:04:33.958Z,8.53
2019-04-13T04:07:02.002Z,10.13
2019-04-13T04:09:29.778Z,9.13
2019-04-13T04:11:57.610Z,9.50
2019-04-13T04:14:25.842Z,10.87
2019-04-13T04:16:54.305Z,8.87
2019-04-13T04:19:22.486Z,8.83
2019-04-13T04:21:50.253Z,9.97
2019-04-13T04:24:18.429Z,11.10
2019-04-13T04:26:47.194Z,9.07
2019-04-13T04:29:15.081Z,10.10
2019-04-13T04:31:43.237Z,9.73
2019-04-13T04:34:11.429Z,10.00
2019-04-13T04:36:38.885Z,10.63
2019-04-13T04:39:07.033Z,10.63
2019-04-13T04:41:35.159Z,10.27
2019-04-13T04:44:03.763Z,7.87
2019-04-13T04:46:32.886Z,8.73
2019-04-13T04:49:04.711Z,9.63
2019-04-13T04:51:33.757Z,8.87
2019-04-13T04:54:02.571Z,9.37
2019-04-13T04:56:30.362Z,8.90
2019-04-13T04:58:58.402Z,8.07
2019-04-13T05:01:26.152Z,5.37
2019-04-13T05:03:54.006Z,7.40
2019-04-13T05:06:21.886Z,7.03
2019-04-13T05:08:49.939Z,6.67
2019-04-13T05:11:18.021Z,5.97
2019-04-13T05:13:46.082Z,7.30
2019-04-13T05:16:14.273Z,5.97
2019-04-13T05:18:42.396Z,7.10
2019-04-13T05:21:10.292Z,3.93
2019-04-13T05:23:38.902Z,5.33
2019-04-13T05:26:07.548Z,5.13
2019-04-13T05:28:35.644Z,7.27
2019-04-13T05:31:03.712Z,6.83
2019-04-13T05:33:31.550Z,6.17
2019-04-13T05:35:59.650Z,4.97
2019-04-13T05:38:27.405Z,5.20
2019-04-13T05:40:55.989Z,4.93
2019-04-13T05:43:24.063Z,7.37
2019-04-13T05:45:52.601Z,6.67
2019-04-13T05:48:20.773Z,6.90
2019-04-13T05:50:48.723Z,7.80
2019-04-13T05:53:16.623Z,6.20
2019-04-13T05:55:46.289Z,7.53
2019-04-13T05:58:14.760Z,3.67
2019-04-13T06:00:41.915Z,6.60
2019-04-13T06:03:09.778Z,6.63
2019-04-13T06:05:38.471Z,6.00
2019-04-13T06:08:06.527Z,6.93
2019-04-13T06:10:34.626Z,8.30
2019-04-13T06:13:02.682Z,7.15
2019-04-13T06:15:31.147Z,7.75
2019-04-13T06:17:58.618Z,6.97
2019-04-13T06:20:26.686Z,7.07
2019-04-13T06:22:54.755Z,7.30
2019-04-13T06:25:28.922Z,6.20
2019-04-13T06:27:50.898Z,5.53
2019-04-13T06:30:47.248Z,6.67
2019-04-13T06:33:27.815Z,5.90
2019-04-13T06:35:55.972Z,6.35
2019-04-13T06:38:23.738Z,4.45
2019-04-13T06:40:51.833Z,6.83
2019-04-13T06:43:19.917Z,7.90
2019-04-13T06:45:48.631Z,6.47
2019-04-13T06:48:16.139Z,7.43
2019-04-13T06:50:44.201Z,5.80
2019-04-13T06:53:12.240Z,5.18
2019-04-13T06:55:40.046Z,6.15
2019-04-13T06:58:08.328Z,3.63
2019-04-13T07:00:36.496Z,4.40
2019-04-13T07:03:03.953Z,5.80
2019-04-13T07:05:32.111Z,4.62
2019-04-13T07:08:23.051Z,4.68
2019-04-13T07:11:06.670Z,4.68
2019-04-13T07:13:55.337Z,8.98
2019-04-13T07:16:48.491Z,6.62
2019-04-13T07:19:16.248Z,5.50
2019-04-13T07:21:44.431Z,7.28
2019-04-13T07:24:12.582Z,6.37
2019-04-13T07:26:40.681Z,4.15
2019-04-13T07:29:08.836Z,5.87
2019-04-13T07:31:36.925Z,6.85
2019-04-13T07:34:05.590Z,6.45
2019-04-13T07:36:33.463Z,6.07
2019-04-13T07:39:01.627Z,6.25
2019-04-13T07:41:31.306Z,5.15
2019-04-13T07:43:57.565Z,6.07
2019-04-13T07:46:35.992Z,4.57
2019-04-13T07:49:21.677Z,6.25
2019-04-13T07:52:01.120Z,6.20
2019-04-13T07:54:29.185Z,4.18
2019-04-13T07:56:57.241Z,5.80
2019-04-13T07:59:26.028Z,6.37
2019-04-13T08:01:57.027Z,4.90
2019-04-13T08:04:21.965Z,5.18
2019-04-13T08:06:50.161Z,6.05
2019-04-13T08:09:18.213Z,5.72
2019-04-13T08:11:46.314Z,5.70
2019-04-13T08:14:24.609Z,4.85
2019-04-13T08:16:52.109Z,6.40
2019-04-13T08:19:20.183Z,6.00
2019-04-13T08:21:48.314Z,5.80
2019-04-13T08:24:16.374Z,4.93
2019-04-13T08:26:46.493Z,5.32
2019-04-13T08:29:12.315Z,5.20
2019-04-13T08:31:40.381Z,3.72
2019-04-13T08:34:08.429Z,4.12
2019-04-13T08:36:37.240Z,5.37
2019-04-13T08:39:06.040Z,5.03
2019-04-13T08:41:34.114Z,4.25
2019-04-13T08:44:05.657Z,3.78
2019-04-13T08:46:30.032Z,4.32
2019-04-13T08:48:57.807Z,4.60
2019-04-13T08:51:25.986Z,3.92
2019-04-13T08:53:54.161Z,4.47
2019-04-13T08:56:22.339Z,4.00
2019-04-13T08:58:50.239Z,3.92
2019-04-13T09:01:18.871Z,3.67
2019-04-13T09:03:46.975Z,4.40
2019-04-13T09:06:17.314Z,3.97
2019-04-13T09:08:43.595Z,3.42
2019-04-13T09:11:14.266Z,3.45
2019-04-13T09:13:40.402Z,2.70
2019-04-13T09:16:08.665Z,2.45
2019-04-13T09:18:44.236Z,3.22
2019-04-13T09:21:18.857Z,2.60
2019-04-13T09:23:48.093Z,3.45
2019-04-13T09:26:14.043Z,3.67
2019-04-13T09:28:43.340Z,3.20
2019-04-13T09:31:10.583Z,2.10
2019-04-13T09:33:38.699Z,2.12
2019-04-13T09:36:06.907Z,1.90
2019-04-13T09:38:42.209Z,2.12
2019-04-13T09:41:03.578Z,2.90
2019-04-13T09:43:35.640Z,1.87
2019-04-13T09:46:06.145Z,3.00
2019-04-13T09:48:31.793Z,2.92
2019-04-13T09:51:00.191Z,2.22
2019-04-13T09:53:28.240Z,2.85
2019-04-13T09:55:56.321Z,2.80
2019-04-13T09:58:24.415Z,2.35
2019-04-13T10:00:52.657Z,2.35
2019-04-13T10:03:21.076Z,2.53
2019-04-13T10:05:49.633Z,2.45
2019-04-13T10:08:20.182Z,2.50
2019-04-13T10:10:45.915Z,1.73
2019-04-13T10:13:32.402Z,2.15
2019-04-13T10:16:11.705Z,1.58
2019-04-13T10:18:46.549Z,1.55
2019-04-13T10:21:14.702Z,1.62
2019-04-13T10:23:42.793Z,2.95
2019-04-13T10:26:15.596Z,1.77
2019-04-13T10:28:39.066Z,1.50
2019-04-13T10:31:06.894Z,1.60
2019-04-13T10:33:35.308Z,2.20
2019-04-13T10:36:03.453Z,2.70
2019-04-13T10:38:31.518Z,2.67
2019-04-13T10:41:00.140Z,2.70
2019-04-13T10:43:27.863Z,2.75
2019-04-13T10:46:22.201Z,2.45
2019-04-13T10:49:11.743Z,2.05
2019-04-13T10:51:43.805Z,2.78
2019-04-13T10:54:11.653Z,2.30
2019-04-13T10:56:39.740Z,3.00
2019-04-13T10:59:07.856Z,2.58
2019-04-13T11:01:35.663Z,2.50
2019-04-13T11:04:03.535Z,2.55
2019-04-13T11:06:31.208Z,1.85
2019-04-13T11:08:58.955Z,1.80
2019-04-13T11:11:27.151Z,2.50
2019-04-13T11:13:55.262Z,2.60
2019-04-13T11:16:23.090Z,2.37
2019-04-13T11:18:51.173Z,2.78
2019-04-13T11:21:19.392Z,1.90
2019-04-13T11:23:48.002Z,1.62
2019-04-13T11:26:15.775Z,2.40
2019-04-13T11:28:43.652Z,2.95
2019-04-13T11:31:11.833Z,2.45
2019-04-13T11:33:42.555Z,2.60
2019-04-13T11:36:08.196Z,2.30
2019-04-13T11:38:37.218Z,2.50
2019-04-13T11:41:09.598Z,2.03
2019-04-13T11:43:55.152Z,2.67
2019-04-13T11:46:44.909Z,2.80
2019-04-13T11:49:14.922Z,2.20
2019-04-13T11:51:43.172Z,1.27
2019-04-13T11:54:11.300Z,2.35
2019-04-13T11:56:39.773Z,1.60
2019-04-13T11:59:07.913Z,2.22
2019-04-13T12:02:10.301Z,2.33
2019-04-13T12:05:00.025Z,1.92
2019-04-13T12:07:47.392Z,1.90
2019-04-13T12:10:34.832Z,1.85
2019-04-13T12:13:21.122Z,1.65
2019-04-13T12:16:17.235Z,2.05
2019-04-13T12:19:12.465Z,1.80
2019-04-13T12:21:54.259Z,1.90
2019-04-13T12:24:25.539Z,2.42
2019-04-13T12:26:53.687Z,2.00
2019-04-13T12:29:21.828Z,1.58
2019-04-13T12:31:49.960Z,2.05
2019-04-13T12:34:17.777Z,1.92
2019-04-13T12:36:45.529Z,2.08
2019-04-13T12:39:13.973Z,1.83
2019-04-13T12:41:49.676Z,2.58
2019-04-13T12:44:17.745Z,2.25
2019-04-13T12:46:45.883Z,2.50
2019-04-13T12:49:13.998Z,2.95
2019-04-13T12:51:42.165Z,3.17
2019-04-13T12:54:10.257Z,1.80
2019-04-13T12:56:38.131Z,1.52
2019-04-13T12:59:06.720Z,1.98
2019-04-13T13:01:55.691Z,3.00
2019-04-13T13:04:23.394Z,2.92
2019-04-13T13:06:51.483Z,2.10
2019-04-13T13:09:28.999Z,2.33
2019-04-13T13:11:57.184Z,2.20
2019-04-13T13:14:28.715Z,2.00
2019-04-13T13:16:53.183Z,1.55
2019-04-13T13:19:21.874Z,2.28
2019-04-13T13:21:49.955Z,1.73
2019-04-13T13:24:20.112Z,1.30
2019-04-13T13:26:49.181Z,1.98
2019-04-13T13:29:14.145Z,1.65
2019-04-13T13:31:42.260Z,1.85
2019-04-13T13:34:10.073Z,2.30
2019-04-13T13:36:38.287Z,2.55
2019-04-13T13:39:06.850Z,2.10
2019-04-13T13:41:34.948Z,1.62
2019-04-13T13:44:02.972Z,2.20
2019-04-13T13:46:30.857Z,1.45
2019-04-13T13:48:58.611Z,1.77
2019-04-13T13:51:27.070Z,2.33
2019-04-13T13:53:54.564Z,2.60
2019-04-13T13:56:22.629Z,2.35
2019-04-13T13:59:08.735Z,1.87
2019-04-13T14:01:43.187Z,1.67
2019-04-13T14:04:08.961Z,1.87
2019-04-13T14:06:37.092Z,2.58
2019-04-13T14:09:08.455Z,2.28
2019-04-13T14:11:36.941Z,1.77
2019-04-13T14:14:02.176Z,1.67
2019-04-13T14:16:30.340Z,1.45
2019-04-13T14:18:58.403Z,1.55
2019-04-13T14:21:26.528Z,1.60
2019-04-13T14:23:54.677Z,1.10
2019-04-13T14:26:22.727Z,1.80
2019-04-13T14:28:51.216Z,1.98
2019-04-13T14:31:19.279Z,1.65
2019-04-13T14:33:47.159Z,1.80
2019-04-13T14:36:15.470Z,1.52
2019-04-13T14:38:43.301Z,2.28
2019-04-13T14:41:11.043Z,2.40
2019-04-13T14:43:42.193Z,2.00
2019-04-13T14:46:10.307Z,2.08
2019-04-13T14:48:38.453Z,2.35
2019-04-13T14:51:06.836Z,2.28
2019-04-13T14:53:35.012Z,2.62
2019-04-13T14:56:05.178Z,2.20
2019-04-13T14:58:31.133Z,2.83
2019-04-13T15:00:59.220Z,2.30
2019-04-13T15:03:26.991Z,2.37
2019-04-13T15:05:54.834Z,2.50
2019-04-13T15:08:22.898Z,2.25
2019-04-13T15:10:51.098Z,2.40
2019-04-13T15:13:19.372Z,2.47
2019-04-13T15:15:48.045Z,2.45
2019-04-13T15:18:48.406Z,2.87
2019-04-13T15:21:14.207Z,2.42
2019-04-13T15:23:43.139Z,2.53
2019-04-13T15:26:10.556Z,2.25
2019-04-13T15:28:40.949Z,2.70
2019-04-13T15:31:09.659Z,1.87
2019-04-13T15:33:37.234Z,1.83
2019-04-13T15:36:06.255Z,3.15
2019-04-13T15:38:32.931Z,2.35
2019-04-13T15:41:03.242Z,1.83
2019-04-13T15:43:31.982Z,2.50
2019-04-13T15:45:57.022Z,1.95
2019-04-13T15:48:28.080Z,2.85
2019-04-13T15:50:53.240Z,1.90
2019-04-13T15:53:23.273Z,2.30
2019-04-13T15:55:50.380Z,2.12
2019-04-13T15:58:18.607Z,0.95
2019-04-13T16:00:46.233Z,1.50
2019-04-13T16:03:14.832Z,1.80
2019-04-13T16:05:43.076Z,1.85
2019-04-13T16:08:10.310Z,1.60
2019-04-13T16:10:55.091Z,1.55
2019-04-13T16:13:23.739Z,1.67
2019-04-13T16:15:51.903Z,1.77
2019-04-13T16:18:20.355Z,2.70
2019-04-13T16:20:48.805Z,2.28
2019-04-13T16:23:17.447Z,2.17
2019-04-13T16:25:44.847Z,1.42
2019-04-13T16:28:50.633Z,1.20
2019-04-13T16:31:37.559Z,1.10
2019-04-13T16:34:21.973Z,2.10
2019-04-13T16:37:09.785Z,1.48
2019-04-13T16:39:39.125Z,1.23
2019-04-13T16:42:15.912Z,1.60
2019-04-13T16:44:49.650Z,1.08
2019-04-13T16:47:41.782Z,1.75
2019-04-13T16:50:16.058Z,1.17
2019-04-13T16:52:50.668Z,2.20
2019-04-13T16:55:24.475Z,1.80
2019-04-13T16:57:57.043Z,1.52
2019-04-13T17:00:50.381Z,1.40
2019-04-13T17:03:29.651Z,1.33
2019-04-13T17:05:58.856Z,2.53
2019-04-13T17:08:26.904Z,2.00
2019-04-13T17:10:56.248Z,1.60
2019-04-13T17:13:23.985Z,2.30
2019-04-13T17:15:52.012Z,1.30
2019-04-13T17:18:35.984Z,1.30
2019-04-13T17:21:18.477Z,1.50
2019-04-13T17:23:58.507Z,1.47
2019-04-13T17:26:52.302Z,2.40
2019-04-13T17:29:35.970Z,1.80
2019-04-13T17:32:14.385Z,2.00
2019-04-13T17:34:48.397Z,1.30
2019-04-13T17:37:19.064Z,1.30
2019-04-13T17:39:46.313Z,1.92
2019-04-13T17:42:39.481Z,2.42
2019-04-13T17:45:06.922Z,2.10
2019-04-13T17:47:57.843Z,1.20
2019-04-13T17:50:43.130Z,1.10
2019-04-13T17:53:28.798Z,2.10
2019-04-13T17:56:01.933Z,1.43
2019-04-13T17:58:48.133Z,1.93
2019-04-13T18:01:33.181Z,1.70
2019-04-13T18:04:35.139Z,1.53
2019-04-13T18:07:25.687Z,1.60
2019-04-13T18:10:11.228Z,1.57
2019-04-13T18:12:51.767Z,2.43
2019-04-13T18:15:53.216Z,1.35
2019-04-13T18:18:39.592Z,1.97
2019-04-13T18:21:07.923Z,1.23
2019-04-13T18:23:36.208Z,2.27
2019-04-13T18:26:06.238Z,1.97
2019-04-13T18:28:33.728Z,2.70
2019-04-13T18:31:02.147Z,2.83
2019-04-13T18:33:30.433Z,2.77
2019-04-13T18:35:58.369Z,3.10
2019-04-13T18:38:26.761Z,3.30
2019-04-13T18:40:53.910Z,2.43
2019-04-13T18:43:26.326Z,1.90
2019-04-13T18:45:49.930Z,3.17
2019-04-13T18:48:18.591Z,3.33
2019-04-13T18:50:47.568Z,4.20
2019-04-13T18:53:14.899Z,3.87
2019-04-13T18:55:43.212Z,4.03
2019-04-13T18:58:12.591Z,4.20
2019-04-13T19:00:39.437Z,4.30
2019-04-13T19:03:07.530Z,5.17
2019-04-13T19:05:35.886Z,4.67
2019-04-13T19:08:03.995Z,4.20
2019-04-13T19:10:31.744Z,4.47
2019-04-13T19:13:03.995Z,4.50
2019-04-13T19:15:27.890Z,4.20
2019-04-13T19:17:55.966Z,4.37
2019-04-13T19:20:24.540Z,5.43
2019-04-13T19:22:54.047Z,4.90
2019-04-13T19:25:22.234Z,5.73
2019-04-13T19:27:50.476Z,5.50
2019-04-13T19:30:18.575Z,3.70
2019-04-13T19:32:46.644Z,5.47
2019-04-13T19:35:14.814Z,4.20
2019-04-13T19:37:42.864Z,5.57
2019-04-13T19:40:11.045Z,6.63
2019-04-13T19:42:39.219Z,3.87
2019-04-13T19:45:07.446Z,5.97
2019-04-13T19:47:35.383Z,5.07
2019-04-13T19:50:03.719Z,5.07
2019-04-13T19:52:37.343Z,6.20
2019-04-13T19:55:08.192Z,4.60
2019-04-13T19:57:33.471Z,6.57
2019-04-13T20:00:01.613Z,4.73
2019-04-13T20:02:29.731Z,6.33
2019-04-13T20:04:57.266Z,6.60
2019-04-13T20:07:25.378Z,6.87
2019-04-13T20:09:54.541Z,6.23
2019-04-13T20:12:22.751Z,6.73
2019-04-13T20:14:50.489Z,7.03
2019-04-13T20:17:18.575Z,5.93
2019-04-13T20:19:46.683Z,6.83
2019-04-13T20:22:14.829Z,6.43
2019-04-13T20:24:43.381Z,7.70
2019-04-13T20:27:11.566Z,7.00
2019-04-13T20:29:40.310Z,7.77
2019-04-13T20:32:08.173Z,7.57
2019-04-13T20:34:35.961Z,7.47
2019-04-13T20:37:03.870Z,7.57
2019-04-13T20:39:33.015Z,7.07
2019-04-13T20:42:05.819Z,7.67
2019-04-13T20:44:30.118Z,7.47
2019-04-13T20:46:58.100Z,7.13
2019-04-13T20:49:25.816Z,7.67
2019-04-13T20:51:53.031Z,7.53
2019-04-13T20:54:21.060Z,8.10
2019-04-13T20:56:49.477Z,9.10
2019-04-13T20:59:17.347Z,8.10
2019-04-13T21:01:45.447Z,11.23
2019-04-13T21:04:15.216Z,9.00
2019-04-13T21:06:43.454Z,8.20
2019-04-13T21:09:12.048Z,8.40
2019-04-13T21:11:41.523Z,6.37
2019-04-13T21:14:16.422Z,7.40
2019-04-13T21:16:36.550Z,8.13
2019-04-13T21:19:04.806Z,8.67
2019-04-13T21:21:33.047Z,7.93
2019-04-13T21:24:02.343Z,8.40
2019-04-13T21:26:30.438Z,8.30
2019-04-13T21:28:58.352Z,6.57
2019-04-13T21:31:26.556Z,8.87
2019-04-13T21:33:56.066Z,9.07
2019-04-13T21:36:23.926Z,9.20
2019-04-13T21:38:51.696Z,8.90
2019-04-13T21:41:19.784Z,8.90
2019-04-13T21:43:48.045Z,9.47
2019-04-13T21:46:17.248Z,9.83
2019-04-13T21:48:44.360Z,9.47
2019-04-13T21:51:31.249Z,8.87
2019-04-13T21:54:06.149Z,9.33
2019-04-13T21:56:34.073Z,8.47
2019-04-13T21:59:01.885Z,9.90
2019-04-13T22:02:02.710Z,8.90
2019-04-13T22:04:30.439Z,9.80
2019-04-13T22:06:58.340Z,9.73
2019-04-13T22:09:26.200Z,9.23
2019-04-13T22:11:54.152Z,10.20
2019-04-13T22:14:33.312Z,9.67
2019-04-13T22:16:50.341Z,10.67
2019-04-13T22:19:18.276Z,13.93
2019-04-13T22:21:46.390Z,11.30
2019-04-13T22:24:14.333Z,12.10
2019-04-13T22:26:43.538Z,10.37
2019-04-13T22:29:18.310Z,10.23
2019-04-13T22:32:12.066Z,11.33
2019-04-13T22:35:00.321Z,10.37
2019-04-13T22:37:27.745Z,9.83
2019-04-13T22:39:55.815Z,9.43
2019-04-13T22:42:25.140Z,9.37
2019-04-13T22:44:58.051Z,11.03
2019-04-13T22:47:21.127Z,9.43
2019-04-13T22:50:08.929Z,10.20
2019-04-13T22:52:54.120Z,9.10
2019-04-13T22:55:40.539Z,9.93
2019-04-13T22:58:09.488Z,10.93
2019-04-13T23:00:43.180Z,9.63
2019-04-13T23:03:16.086Z,8.67
2019-04-13T23:05:45.827Z,9.77
2019-04-13T23:08:13.947Z,7.97
2019-04-13T23:10:42.139Z,9.77
2019-04-13T23:13:10.265Z,10.57
2019-04-13T23:15:40.460Z,8.70
2019-04-13T23:18:05.858Z,9.30
2019-04-13T23:20:34.339Z,10.53
2019-04-13T23:23:02.800Z,9.67
2019-04-13T23:25:31.169Z,10.50
2019-04-13T23:27:59.136Z,11.07
2019-04-13T23:30:26.979Z,11.03
2019-04-13T23:32:55.542Z,9.93
2019-04-13T23:35:23.654Z,10.90
2019-04-13T23:37:52.037Z,10.97
2019-04-13T23:40:20.390Z,12.07
2019-04-13T23:42:48.464Z,10.57
2019-04-13T23:45:25.064Z,11.47
2019-04-13T23:47:47.045Z,11.77
2019-04-13T23:50:15.619Z,8.60
2019-04-13T23:52:43.323Z,11.43
2019-04-13T23:55:11.844Z,12.53
2019-04-13T23:58:10.380Z,10.87
